createdAt,value
2023-02-22T00:01:07.298Z,62.10
2023-02-22T00:03:34.924Z,62.30
2023-02-22T00:06:04.995Z,62.30
2023-02-22T00:08:37.378Z,62.30
2023-02-22T00:11:09.043Z,62.50
2023-02-22T00:13:38.515Z,62.70
2023-02-22T00:16:06.923Z,62.60
2023-02-22T00:18:33.936Z,62.70
2023-02-22T00:21:01.591Z,62.80
2023-02-22T00:23:31.675Z,62.80
2023-02-22T00:26:01.183Z,62.80
2023-02-22T00:28:28.285Z,62.80
2023-02-22T00:30:55.507Z,62.80
2023-02-22T00:33:23.370Z,62.80
2023-02-22T00:35:50.835Z,63.00
2023-02-22T00:38:19.528Z,62.90
2023-02-22T00:40:46.610Z,62.90
2023-02-22T00:43:14.707Z,62.80
2023-02-22T00:45:42.289Z,62.80
2023-02-22T00:48:10.629Z,62.80
2023-02-22T00:50:37.934Z,63.00
2023-02-22T00:53:06.173Z,63.10
2023-02-22T00:55:36.094Z,63.30
2023-02-22T00:58:05.138Z,63.40
2023-02-22T01:00:35.515Z,63.50
2023-02-22T01:03:02.904Z,63.60
2023-02-22T01:05:31.623Z,63.70
2023-02-22T01:08:01.417Z,63.50
2023-02-22T01:10:31.024Z,63.50
2023-02-22T01:13:00.432Z,63.50
2023-02-22T01:15:30.647Z,63.40
2023-02-22T01:17:59.668Z,63.40
2023-02-22T01:20:29.364Z,63.40
2023-02-22T01:22:59.393Z,63.50
2023-02-22T01:25:29.476Z,63.80
2023-02-22T01:27:58.372Z,63.80
2023-02-22T01:30:30.328Z,64.00
2023-02-22T01:32:58.507Z,64.10
2023-02-22T01:35:33.035Z,64.20
2023-02-22T01:38:00.925Z,64.40
2023-02-22T01:40:50.595Z,64.50
2023-02-22T01:43:25.818Z,64.80
2023-02-22T01:46:21.974Z,64.80
2023-02-22T01:48:57.413Z,65.00
2023-02-22T01:51:44.110Z,65.00
2023-02-22T01:54:17.150Z,65.30
2023-02-22T01:57:06.266Z,65.50
2023-02-22T01:59:38.267Z,66.10
2023-02-22T02:02:05.618Z,66.90
2023-02-22T02:04:34.503Z,66.40
2023-02-22T02:07:06.147Z,66.80
2023-02-22T02:10:04.425Z,67.20
2023-02-22T02:12:35.720Z,67.70
2023-02-22T02:15:29.220Z,67.80
2023-02-22T02:18:00.955Z,68.50
2023-02-22T02:21:21.174Z,68.30
2023-02-22T02:24:28.321Z,69.10
2023-02-22T02:27:26.015Z,69.10
2023-02-22T02:30:43.182Z,69.80
2023-02-22T02:33:20.267Z,70.10
2023-02-22T02:36:08.206Z,70.10
2023-02-22T02:38:49.379Z,70.30
2023-02-22T02:41:27.334Z,70.70
2023-02-22T02:44:14.188Z,71.10
2023-02-22T02:47:02.157Z,71.20
2023-02-22T02:49:46.879Z,71.50
2023-02-22T02:52:16.873Z,72.00
2023-02-22T02:54:46.072Z,72.20
2023-02-22T02:57:14.413Z,72.50
2023-02-22T02:59:43.625Z,72.90
2023-02-22T03:03:11.711Z,73.10
2023-02-22T03:06:10.456Z,73.70
2023-02-22T03:08:50.576Z,74.20
2023-02-22T03:11:22.260Z,73.80
2023-02-22T03:14:22.372Z,73.90
2023-02-22T03:16:59.457Z,74.40
2023-02-22T03:19:45.746Z,74.20
2023-02-22T03:22:24.786Z,74.50
2023-02-22T03:25:14.043Z,74.60
2023-02-22T03:27:49.789Z,75.20
2023-02-22T03:30:53.023Z,74.90
2023-02-22T03:33:34.015Z,75.40
2023-02-22T03:36:21.673Z,75.40
2023-02-22T03:38:50.431Z,75.50
2023-02-22T03:41:25.048Z,75.50
2023-02-22T03:44:16.414Z,75.70
2023-02-22T03:46:46.711Z,76.10
2023-02-22T03:49:33.212Z,76.20
2023-02-22T03:52:01.364Z,76.50
2023-02-22T03:54:30.386Z,76.50
2023-02-22T03:57:11.761Z,76.60
2023-02-22T03:59:42.166Z,76.70
2023-02-22T04:02:09.243Z,76.60
2023-02-22T04:04:36.254Z,76.40
2023-02-22T04:07:03.557Z,76.40
2023-02-22T04:09:30.591Z,76.40
2023-02-22T04:11:57.824Z,76.40
2023-02-22T04:14:27.125Z,76.30
2023-02-22T04:16:56.844Z,76.20
2023-02-22T04:19:23.875Z,76.20
2023-02-22T04:21:51.993Z,76.20
2023-02-22T04:24:22.610Z,76.00
2023-02-22T04:26:50.211Z,75.90
2023-02-22T04:29:17.600Z,75.80
2023-02-22T04:31:45.483Z,75.60
2023-02-22T04:34:12.568Z,75.70
2023-02-22T04:36:42.297Z,75.70
2023-02-22T04:39:10.788Z,75.70
2023-02-22T04:41:37.904Z,75.70
2023-02-22T04:44:06.795Z,75.70
2023-02-22T04:46:34.763Z,75.70
2023-02-22T04:49:02.622Z,75.80
2023-02-22T04:51:32.419Z,76.00
2023-02-22T04:54:05.722Z,76.10
2023-02-22T04:56:34.718Z,76.90
2023-02-22T04:59:01.917Z,76.40
2023-02-22T05:01:34.439Z,76.50
2023-02-22T05:04:04.067Z,76.70
2023-02-22T05:06:31.395Z,76.80
2023-02-22T05:08:58.465Z,77.00
2023-02-22T05:11:25.658Z,77.10
2023-02-22T05:13:53.286Z,77.10
2023-02-22T05:16:20.364Z,77.90
2023-02-22T05:18:47.386Z,77.20
2023-02-22T05:21:14.408Z,77.30
2023-02-22T05:23:41.616Z,77.30
2023-02-22T05:26:11.421Z,77.40
2023-02-22T05:28:38.887Z,77.40
2023-02-22T05:31:07.336Z,77.50
2023-02-22T05:33:34.672Z,77.60
2023-02-22T05:36:02.075Z,77.60
2023-02-22T05:38:28.990Z,77.80
2023-02-22T05:40:56.849Z,78.00
2023-02-22T05:43:23.868Z,78.20
2023-02-22T05:45:50.915Z,78.40
2023-02-22T05:48:17.852Z,78.50
2023-02-22T05:50:46.000Z,78.70
2023-02-22T05:53:13.222Z,78.80
2023-02-22T05:55:40.320Z,78.90
2023-02-22T05:58:07.326Z,79.00
2023-02-22T06:00:34.406Z,79.20
2023-02-22T06:03:08.191Z,79.30
2023-02-22T06:05:36.126Z,79.40
2023-02-22T06:08:05.000Z,79.40
2023-02-22T06:10:32.982Z,79.40
2023-02-22T06:13:01.853Z,79.50
2023-02-22T06:15:29.505Z,79.50
2023-02-22T06:17:58.818Z,79.40
2023-02-22T06:20:30.571Z,79.40
2023-02-22T06:22:59.124Z,79.40
2023-02-22T06:25:31.380Z,79.40
2023-02-22T06:28:01.624Z,79.40
2023-02-22T06:30:29.806Z,79.40
2023-02-22T06:32:56.825Z,79.50
2023-02-22T06:35:23.847Z,79.40
2023-02-22T06:37:51.242Z,79.30
2023-02-22T06:40:18.459Z,79.20
2023-02-22T06:42:49.163Z,79.20
2023-02-22T06:45:18.179Z,79.20
2023-02-22T06:47:45.504Z,79.20
2023-02-22T06:50:35.771Z,79.20
2023-02-22T06:53:03.524Z,79.30
2023-02-22T06:55:33.263Z,79.20
2023-02-22T06:58:01.253Z,79.10
2023-02-22T07:00:31.049Z,79.10
2023-02-22T07:02:59.530Z,79.50
2023-02-22T07:05:28.479Z,79.20
2023-02-22T07:08:03.277Z,79.20
2023-02-22T07:10:33.266Z,79.30
2023-02-22T07:13:01.719Z,79.10
2023-02-22T07:15:33.248Z,79.20
2023-02-22T07:18:01.032Z,79.10
2023-02-22T07:20:30.821Z,79.00
2023-02-22T07:22:57.938Z,78.80
2023-02-22T07:25:25.361Z,78.60
2023-02-22T07:27:52.826Z,78.40
2023-02-22T07:30:31.315Z,78.40
2023-02-22T07:33:02.749Z,78.40
2023-02-22T07:35:39.266Z,78.10
2023-02-22T07:38:10.440Z,78.10
2023-02-22T07:40:39.558Z,78.20
2023-02-22T07:43:21.254Z,77.90
2023-02-22T07:45:51.580Z,77.50
2023-02-22T07:48:21.214Z,77.30
2023-02-22T07:50:48.646Z,77.20
2023-02-22T07:53:20.273Z,77.20
2023-02-22T07:55:50.985Z,76.90
2023-02-22T07:58:23.385Z,76.90
2023-02-22T08:00:50.315Z,76.90
2023-02-22T08:03:20.290Z,76.60
2023-02-22T08:05:51.566Z,76.40
2023-02-22T08:08:19.909Z,76.30
2023-02-22T08:10:47.655Z,76.40
2023-02-22T08:13:15.397Z,76.20
2023-02-22T08:15:44.277Z,76.20
2023-02-22T08:18:16.284Z,76.10
2023-02-22T08:20:45.816Z,76.00
2023-02-22T08:23:14.839Z,75.90
2023-02-22T08:25:42.172Z,75.70
2023-02-22T08:28:16.797Z,75.70
2023-02-22T08:30:44.348Z,75.60
2023-02-22T08:33:15.852Z,75.60
2023-02-22T08:35:43.157Z,75.60
2023-02-22T08:38:20.723Z,75.60
2023-02-22T08:40:49.230Z,75.40
2023-02-22T08:43:17.218Z,75.30
2023-02-22T08:45:45.737Z,75.30
2023-02-22T08:48:14.086Z,75.20
2023-02-22T08:50:41.854Z,75.10
2023-02-22T08:53:10.610Z,74.90
2023-02-22T08:55:39.302Z,74.80
2023-02-22T08:58:09.227Z,74.70
2023-02-22T09:00:38.937Z,74.50
2023-02-22T09:03:10.182Z,74.30
2023-02-22T09:05:37.535Z,74.00
2023-02-22T09:08:05.646Z,74.00
2023-02-22T09:10:34.978Z,73.80
2023-02-22T09:13:03.977Z,73.60
2023-02-22T09:15:32.566Z,73.40
2023-02-22T09:17:59.955Z,73.30
2023-02-22T09:20:28.060Z,73.10
2023-02-22T09:22:55.233Z,72.80
2023-02-22T09:25:23.541Z,72.70
2023-02-22T09:27:53.192Z,72.30
2023-02-22T09:30:28.102Z,72.00
2023-02-22T09:33:05.444Z,71.60
2023-02-22T09:35:36.359Z,71.60
2023-02-22T09:38:08.564Z,71.50
2023-02-22T09:40:44.654Z,71.40
2023-02-22T09:43:32.847Z,71.40
2023-02-22T09:46:21.420Z,71.40
2023-02-22T09:49:05.437Z,71.00
2023-02-22T09:51:44.539Z,70.90
2023-02-22T09:54:43.353Z,71.00
2023-02-22T09:57:22.978Z,70.40
2023-02-22T10:00:20.828Z,70.00
2023-02-22T10:03:15.651Z,69.50
2023-02-22T10:05:50.762Z,69.40
2023-02-22T10:08:20.017Z,69.00
2023-02-22T10:10:55.752Z,68.80
2023-02-22T10:13:39.145Z,68.40
2023-02-22T10:16:50.385Z,67.70
2023-02-22T10:19:54.887Z,67.20
2023-02-22T10:22:52.830Z,66.80
2023-02-22T10:25:26.328Z,66.10
2023-02-22T10:28:03.779Z,66.40
2023-02-22T10:30:36.699Z,66.10
2023-02-22T10:33:22.162Z,66.00
2023-02-22T10:35:51.717Z,65.90
2023-02-22T10:38:27.340Z,65.90
2023-02-22T10:41:21.259Z,65.30
2023-02-22T10:43:48.183Z,65.00
2023-02-22T10:46:19.516Z,65.10
2023-02-22T10:48:52.350Z,64.60
2023-02-22T10:51:19.315Z,64.00
2023-02-22T10:54:05.016Z,63.70
2023-02-22T10:56:31.902Z,63.30
2023-02-22T10:59:04.099Z,63.60
2023-02-22T11:01:42.407Z,63.10
2023-02-22T11:04:21.756Z,62.70
2023-02-22T11:06:59.545Z,62.70
2023-02-22T11:09:29.035Z,62.80
2023-02-22T11:12:16.290Z,62.50
2023-02-22T11:14:43.378Z,61.90
2023-02-22T11:17:17.459Z,61.80
2023-02-22T11:19:49.554Z,61.50
2023-02-22T11:22:32.147Z,61.20
2023-02-22T11:25:03.374Z,61.20
2023-02-22T11:27:41.634Z,61.30
2023-02-22T11:30:32.557Z,61.40
2023-02-22T11:33:29.468Z,61.30
2023-02-22T11:36:04.768Z,61.20
2023-02-22T11:38:34.726Z,61.60
2023-02-22T11:41:26.519Z,61.50
2023-02-22T11:43:56.448Z,61.20
2023-02-22T11:46:32.594Z,61.40
2023-02-22T11:49:08.779Z,61.80
2023-02-22T11:51:58.580Z,60.90
2023-02-22T11:55:36.508Z,60.90
2023-02-22T11:58:30.266Z,60.60
2023-02-22T12:01:21.635Z,60.50
2023-02-22T12:04:34.563Z,60.10
2023-02-22T12:07:26.145Z,60.10
2023-02-22T12:10:19.690Z,60.00
2023-02-22T12:13:04.687Z,60.00
2023-02-22T12:15:48.026Z,60.10
2023-02-22T12:18:35.014Z,60.00
2023-02-22T12:21:09.291Z,60.20
2023-02-22T12:23:58.853Z,60.00
2023-02-22T12:26:41.327Z,59.70
2023-02-22T12:29:37.577Z,59.80
2023-02-22T12:32:38.921Z,59.60
2023-02-22T12:35:17.072Z,59.70
2023-02-22T12:37:52.458Z,59.70
2023-02-22T12:41:14.872Z,59.70
2023-02-22T12:43:56.201Z,59.80
2023-02-22T12:46:32.129Z,59.80
2023-02-22T12:49:19.058Z,59.60
2023-02-22T12:52:21.346Z,59.40
2023-02-22T12:55:18.575Z,59.30
2023-02-22T12:58:10.012Z,59.40
2023-02-22T13:00:59.820Z,59.30
2023-02-22T13:03:38.459Z,59.10
2023-02-22T13:06:18.657Z,59.20
2023-02-22T13:09:32.289Z,59.30
2023-02-22T13:12:07.391Z,59.20
2023-02-22T13:14:55.375Z,60.00
2023-02-22T13:17:53.158Z,59.20
2023-02-22T13:20:34.489Z,59.10
2023-02-22T13:23:35.348Z,59.10
2023-02-22T13:26:41.309Z,59.10
2023-02-22T13:29:35.201Z,58.80
2023-02-22T13:32:56.825Z,58.60
2023-02-22T13:35:26.926Z,58.40
2023-02-22T13:38:49.399Z,58.50
2023-02-22T13:41:51.893Z,58.10
2023-02-22T13:44:36.369Z,58.20
2023-02-22T13:47:36.230Z,58.10
2023-02-22T13:50:43.678Z,57.90
2023-02-22T13:53:23.738Z,57.80
2023-02-22T13:55:57.388Z,57.90
2023-02-22T13:58:25.133Z,58.00
2023-02-22T14:00:55.832Z,58.10
2023-02-22T14:03:24.039Z,57.90
2023-02-22T14:05:57.572Z,57.90
2023-02-22T14:08:31.062Z,58.00
2023-02-22T14:11:06.546Z,58.10
2023-02-22T14:14:00.747Z,58.00
2023-02-22T14:16:30.193Z,57.80
2023-02-22T14:19:15.777Z,58.10
2023-02-22T14:22:02.072Z,57.90
2023-02-22T14:24:51.043Z,57.80
2023-02-22T14:27:18.477Z,57.90
2023-02-22T14:29:57.833Z,58.10
2023-02-22T14:32:33.692Z,58.00
2023-02-22T14:35:26.495Z,58.10
2023-02-22T14:37:59.060Z,58.10
2023-02-22T14:40:30.357Z,58.30
2023-02-22T14:43:36.671Z,58.20
2023-02-22T14:46:08.306Z,58.00
2023-02-22T14:48:39.644Z,58.20
2023-02-22T14:51:23.199Z,58.30
2023-02-22T14:54:35.442Z,58.20
2023-02-22T14:57:30.022Z,58.30
2023-02-22T15:00:23.251Z,58.40
2023-02-22T15:02:53.305Z,58.60
2023-02-22T15:05:21.474Z,58.50
2023-02-22T15:08:02.133Z,58.60
2023-02-22T15:10:45.814Z,58.60
2023-02-22T15:13:23.827Z,58.60
2023-02-22T15:16:02.580Z,58.70
2023-02-22T15:18:43.502Z,58.70
2023-02-22T15:21:18.299Z,58.80
2023-02-22T15:23:50.015Z,59.00
2023-02-22T15:26:27.969Z,59.20
2023-02-22T15:31:53.518Z,59.50
2023-02-22T15:34:32.271Z,59.60
2023-02-22T15:37:25.270Z,59.70
2023-02-22T15:39:59.370Z,59.80
2023-02-22T15:42:30.321Z,60.00
2023-02-22T15:44:58.097Z,60.00
2023-02-22T15:47:40.003Z,60.20
2023-02-22T15:50:28.821Z,60.30
2023-02-22T15:53:06.694Z,60.50
2023-02-22T15:55:47.274Z,60.50
2023-02-22T15:58:25.278Z,60.70
2023-02-22T16:01:00.211Z,60.70
2023-02-22T16:03:29.384Z,60.80
2023-02-22T16:05:58.462Z,60.90
2023-02-22T16:08:54.736Z,61.10
2023-02-22T16:11:30.021Z,61.20
2023-02-22T16:14:05.126Z,61.30
2023-02-22T16:16:41.604Z,61.40
2023-02-22T16:19:39.255Z,61.90
2023-02-22T16:22:28.855Z,61.60
2023-02-22T16:25:19.162Z,61.60
2023-02-22T16:27:50.629Z,61.70
2023-02-22T16:30:28.740Z,61.80
2023-02-22T16:32:57.385Z,62.00
2023-02-22T16:35:29.449Z,62.10
2023-02-22T16:38:09.694Z,62.20
2023-02-22T16:40:50.843Z,62.30
2023-02-22T16:43:21.840Z,62.40
2023-02-22T16:45:48.916Z,62.50
2023-02-22T16:48:21.252Z,62.60
2023-02-22T16:50:51.467Z,62.80
2023-02-22T16:53:22.737Z,62.90
2023-02-22T16:55:57.458Z,63.10
2023-02-22T16:58:28.335Z,63.10
2023-02-22T17:00:57.259Z,63.30
2023-02-22T17:03:26.398Z,63.40
2023-02-22T17:05:54.038Z,63.60
2023-02-22T17:08:21.048Z,63.60
2023-02-22T17:10:51.375Z,63.70
2023-02-22T17:13:27.120Z,63.90
2023-02-22T17:15:55.710Z,64.10
2023-02-22T17:18:28.267Z,64.20
2023-02-22T17:20:55.930Z,64.30
2023-02-22T17:23:24.308Z,64.50
2023-02-22T17:26:00.268Z,65.50
2023-02-22T17:28:27.361Z,65.10
2023-02-22T17:31:01.241Z,65.10
2023-02-22T17:33:33.221Z,65.40
2023-02-22T17:36:02.570Z,65.70
2023-02-22T17:38:30.679Z,65.90
2023-02-22T17:41:01.333Z,66.00
2023-02-22T17:43:29.006Z,66.20
2023-02-22T17:45:56.647Z,66.30
2023-02-22T17:48:24.512Z,66.60
2023-02-22T17:50:53.291Z,66.70
2023-02-22T17:53:24.407Z,66.90
2023-02-22T17:55:51.956Z,67.10
2023-02-22T17:58:19.214Z,67.20
2023-02-22T18:00:50.146Z,67.30
2023-02-22T18:03:25.317Z,67.50
2023-02-22T18:05:59.872Z,67.70
2023-02-22T18:08:29.734Z,67.80
2023-02-22T18:10:57.091Z,67.90
2023-02-22T18:13:27.417Z,68.00
2023-02-22T18:16:00.037Z,68.20
2023-02-22T18:18:27.422Z,68.40
2023-02-22T18:20:59.255Z,68.50
2023-02-22T18:23:28.818Z,68.50
2023-02-22T18:26:10.178Z,68.70
2023-02-22T18:28:38.418Z,68.80
2023-02-22T18:31:14.935Z,68.90
2023-02-22T18:33:49.573Z,69.20
2023-02-22T18:36:22.439Z,69.30
2023-02-22T18:38:51.928Z,69.30
2023-02-22T18:41:25.021Z,69.30
2023-02-22T18:43:55.147Z,69.40
2023-02-22T18:46:24.357Z,69.50
2023-02-22T18:48:56.042Z,69.70
2023-02-22T18:51:24.848Z,69.80
2023-02-22T18:53:57.066Z,70.50
2023-02-22T18:56:29.464Z,69.90
2023-02-22T18:59:01.537Z,69.90
2023-02-22T19:01:29.953Z,70.00
2023-02-22T19:03:57.296Z,70.10
2023-02-22T19:06:24.478Z,70.10
2023-02-22T19:08:52.042Z,70.20
2023-02-22T19:11:23.412Z,70.20
2023-02-22T19:13:54.162Z,70.50
2023-02-22T19:16:23.497Z,70.30
2023-02-22T19:18:52.725Z,70.40
2023-02-22T19:21:20.376Z,70.50
2023-02-22T19:23:48.665Z,70.60
2023-02-22T19:26:21.171Z,70.70
2023-02-22T19:28:49.097Z,70.70
2023-02-22T19:31:19.358Z,70.70
2023-02-22T19:33:48.550Z,71.60
2023-02-22T19:36:16.130Z,70.90
2023-02-22T19:38:44.050Z,71.00
2023-02-22T19:41:18.315Z,71.10
2023-02-22T19:43:47.563Z,71.10
2023-02-22T19:46:17.659Z,71.10
2023-02-22T19:48:45.730Z,71.20
2023-02-22T19:51:15.710Z,71.30
2023-02-22T19:53:45.032Z,71.40
2023-02-22T19:56:19.815Z,71.50
2023-02-22T19:58:49.801Z,72.40
2023-02-22T20:01:23.252Z,71.60
2023-02-22T20:03:54.877Z,71.60
2023-02-22T20:06:28.194Z,71.80
2023-02-22T20:08:57.288Z,71.80
2023-02-22T20:11:25.191Z,71.90
2023-02-22T20:13:52.248Z,71.80
2023-02-22T20:16:19.378Z,71.90
2023-02-22T20:18:48.352Z,72.00
2023-02-22T20:21:24.660Z,71.90
2023-02-22T20:23:56.834Z,72.00
2023-02-22T20:26:25.908Z,71.80
2023-02-22T20:28:53.476Z,71.80
2023-02-22T20:31:21.985Z,71.70
2023-02-22T20:33:55.349Z,71.60
2023-02-22T20:36:22.761Z,71.60
2023-02-22T20:38:55.318Z,71.50
2023-02-22T20:41:25.827Z,71.50
2023-02-22T20:43:55.329Z,71.30
2023-02-22T20:46:24.655Z,71.30
2023-02-22T20:49:00.194Z,71.20
2023-02-22T20:51:28.076Z,71.10
2023-02-22T20:53:57.373Z,71.00
2023-02-22T20:56:24.643Z,70.90
2023-02-22T20:58:52.035Z,70.80
2023-02-22T21:01:22.460Z,70.70
2023-02-22T21:03:50.085Z,70.60
2023-02-22T21:06:21.228Z,70.60
2023-02-22T21:08:55.283Z,70.50
2023-02-22T21:11:25.394Z,70.50
2023-02-22T21:13:53.520Z,70.40
2023-02-22T21:16:28.099Z,70.30
2023-02-22T21:19:01.467Z,70.30
2023-02-22T21:21:29.830Z,70.20
2023-02-22T21:24:01.639Z,70.20
2023-02-22T21:26:33.350Z,70.20
2023-02-22T21:29:04.628Z,70.20
2023-02-22T21:31:33.893Z,70.20
2023-02-22T21:34:01.238Z,70.20
2023-02-22T21:36:29.200Z,70.20
2023-02-22T21:39:00.156Z,70.20
2023-02-22T21:41:31.369Z,70.30
2023-02-22T21:43:59.702Z,70.30
2023-02-22T21:46:29.039Z,70.30
2023-02-22T21:48:58.424Z,70.40
2023-02-22T21:51:33.406Z,70.40
2023-02-22T21:54:07.174Z,70.50
2023-02-22T21:56:38.622Z,70.50
2023-02-22T21:59:19.092Z,70.60
2023-02-22T22:01:50.378Z,70.70
2023-02-22T22:04:20.987Z,70.70
2023-02-22T22:06:53.651Z,70.80
2023-02-22T22:09:23.782Z,70.80
2023-02-22T22:12:06.307Z,70.90
2023-02-22T22:14:34.728Z,71.00
2023-02-22T22:17:02.681Z,71.00
2023-02-22T22:19:33.554Z,71.10
2023-02-22T22:22:01.384Z,71.20
2023-02-22T22:24:32.185Z,71.20
2023-02-22T22:27:03.513Z,71.40
2023-02-22T22:29:34.258Z,71.50
2023-02-22T22:32:02.124Z,71.60
2023-02-22T22:34:29.644Z,71.60
2023-02-22T22:36:58.068Z,71.70
2023-02-22T22:39:26.797Z,71.90
2023-02-22T22:41:54.102Z,72.70
2023-02-22T22:44:22.290Z,72.00
2023-02-22T22:46:54.614Z,72.10
2023-02-22T22:49:23.729Z,72.30
2023-02-22T22:51:51.036Z,72.30
2023-02-22T22:54:18.221Z,72.40
2023-02-22T22:56:45.158Z,73.20
2023-02-22T22:59:13.315Z,72.60
2023-02-22T23:01:44.411Z,72.70
2023-02-22T23:04:16.387Z,72.80
2023-02-22T23:06:47.231Z,73.00
2023-02-22T23:09:31.659Z,73.10
2023-02-22T23:12:08.722Z,73.30
2023-02-22T23:14:39.863Z,73.30
2023-02-22T23:17:14.110Z,73.50
2023-02-22T23:19:44.807Z,73.60
2023-02-22T23:22:14.126Z,73.70
2023-02-22T23:24:42.996Z,73.90
2023-02-22T23:27:10.792Z,74.00
2023-02-22T23:29:41.103Z,74.20
2023-02-22T23:32:08.844Z,74.30
2023-02-22T23:34:38.567Z,74.40
2023-02-22T23:37:09.929Z,74.50
2023-02-22T23:39:37.242Z,74.60
2023-02-22T23:42:04.375Z,74.80
2023-02-22T23:44:31.377Z,74.90
2023-02-22T23:46:58.400Z,75.00
2023-02-22T23:49:35.683Z,75.10
2023-02-22T23:52:05.225Z,75.10
2023-02-22T23:54:36.284Z,75.30
2023-02-22T23:57:05.286Z,75.30
2023-02-22T23:59:33.516Z,75.40
